createdAt,value
2023-02-14T00:02:57.267Z,-1.36
2023-02-14T00:06:20.031Z,-1.44
2023-02-14T00:09:42.488Z,-1.44
2023-02-14T00:13:05.461Z,-1.36
2023-02-14T00:16:28.100Z,-0.98
2023-02-14T00:19:51.069Z,-0.80
2023-02-14T00:23:13.823Z,-1.22
2023-02-14T00:26:38.778Z,-1.28
2023-02-14T00:30:03.092Z,-1.37
2023-02-14T00:33:27.059Z,-1.02
2023-02-14T00:36:49.507Z,-0.82
2023-02-14T00:40:15.235Z,-1.03
2023-02-14T00:43:37.373Z,-1.06
2023-02-14T00:47:00.294Z,-1.08
2023-02-14T00:50:24.171Z,-1.17
2023-02-14T00:53:47.491Z,-1.25
2023-02-14T00:57:09.833Z,-1.48
2023-02-14T01:00:33.068Z,-1.47
2023-02-14T01:03:55.471Z,-1.46
2023-02-14T01:07:19.234Z,-1.76
2023-02-14T01:10:41.665Z,-2.04
2023-02-14T01:14:04.131Z,-1.73
2023-02-14T01:17:26.688Z,-1.34
2023-02-14T01:20:49.682Z,-1.04
2023-02-14T01:24:13.492Z,-1.49
2023-02-14T01:27:37.126Z,-1.27
2023-02-14T01:30:59.603Z,-1.92
2023-02-14T01:34:22.886Z,-2.19
2023-02-14T01:37:45.311Z,-1.98
2023-02-14T01:41:09.421Z,-1.37
2023-02-14T01:44:58.894Z,-1.40
2023-02-14T01:48:22.261Z,-1.92
2023-02-14T01:51:45.522Z,-1.75
2023-02-14T01:55:13.030Z,-1.67
2023-02-14T01:58:40.819Z,-1.97
2023-02-14T02:02:04.231Z,-1.55
2023-02-14T02:05:27.274Z,-1.58
2023-02-14T02:08:53.192Z,-1.53
2023-02-14T02:12:15.650Z,-1.71
2023-02-14T02:15:43.748Z,-1.74
2023-02-14T02:19:22.269Z,-1.64
2023-02-14T02:23:21.562Z,-1.44
2023-02-14T02:27:26.230Z,-2.03
2023-02-14T02:31:03.222Z,-2.24
2023-02-14T02:34:43.956Z,-2.31
2023-02-14T02:38:15.923Z,-1.93
2023-02-14T02:41:49.212Z,-2.31
2023-02-14T02:45:13.951Z,-2.71
2023-02-14T02:48:38.524Z,-2.37
2023-02-14T02:52:19.285Z,-1.91
2023-02-14T02:56:02.233Z,-2.33
2023-02-14T02:59:25.881Z,-2.03
2023-02-14T03:03:07.999Z,-2.18
2023-02-14T03:06:31.344Z,-1.83
2023-02-14T03:09:58.175Z,-1.63
2023-02-14T03:13:46.238Z,-1.79
2023-02-14T03:17:11.015Z,-2.21
2023-02-14T03:20:37.023Z,-2.21
2023-02-14T03:24:05.435Z,-2.33
2023-02-14T03:27:29.727Z,-2.49
2023-02-14T03:30:59.582Z,-2.65
2023-02-14T03:34:24.949Z,-2.17
2023-02-14T03:37:50.042Z,-2.19
2023-02-14T03:41:13.943Z,-2.49
2023-02-14T03:44:36.547Z,-2.93
2023-02-14T03:48:03.364Z,-2.71
2023-02-14T03:51:26.180Z,-2.66
2023-02-14T03:54:49.065Z,-2.96
2023-02-14T03:58:13.505Z,-2.75
2023-02-14T04:01:37.750Z,-2.49
2023-02-14T04:05:02.278Z,-2.31
2023-02-14T04:08:28.063Z,-2.86
2023-02-14T04:11:51.464Z,-2.48
2023-02-14T04:15:14.180Z,-2.86
2023-02-14T04:18:54.511Z,-2.67
2023-02-14T04:22:18.382Z,-2.80
2023-02-14T04:25:43.107Z,-2.06
2023-02-14T04:29:05.258Z,-2.30
2023-02-14T04:32:28.262Z,-2.13
2023-02-14T04:35:50.691Z,-2.27
2023-02-14T04:39:14.616Z,-1.96
2023-02-14T04:42:37.065Z,-2.03
2023-02-14T04:45:59.721Z,-2.12
2023-02-14T04:49:22.137Z,-2.51
2023-02-14T04:52:45.226Z,-2.86
2023-02-14T04:56:09.551Z,-2.67
2023-02-14T04:59:32.444Z,-2.82
2023-02-14T05:02:55.007Z,-2.62
2023-02-14T05:06:17.580Z,-2.38
2023-02-14T05:09:40.025Z,-2.98
2023-02-14T05:13:04.240Z,-3.01
2023-02-14T05:16:26.609Z,-2.41
2023-02-14T05:19:49.620Z,-2.81
2023-02-14T05:23:13.908Z,-3.47
2023-02-14T05:26:36.985Z,-3.11
2023-02-14T05:30:00.807Z,-3.32
2023-02-14T05:33:23.588Z,-3.63
2023-02-14T05:36:46.017Z,-3.38
2023-02-14T05:40:09.729Z,-2.91
2023-02-14T05:43:32.437Z,-3.41
2023-02-14T05:46:56.582Z,-3.65
2023-02-14T05:50:19.511Z,-3.47
2023-02-14T05:53:42.110Z,-3.68
2023-02-14T05:57:04.764Z,-3.94
2023-02-14T06:00:28.136Z,-3.47
2023-02-14T06:03:52.354Z,-3.55
2023-02-14T06:07:15.094Z,-3.94
2023-02-14T06:10:38.043Z,-3.89
2023-02-14T06:14:00.540Z,-3.82
2023-02-14T06:17:23.672Z,-3.91
2023-02-14T06:20:47.732Z,-3.73
2023-02-14T06:24:10.592Z,-3.78
2023-02-14T06:27:33.343Z,-3.60
2023-02-14T06:30:56.281Z,-3.29
2023-02-14T06:34:18.731Z,-3.46
2023-02-14T06:37:42.629Z,-3.39
2023-02-14T06:41:05.951Z,-3.21
2023-02-14T06:44:29.392Z,-3.06
2023-02-14T06:47:51.872Z,-3.10
2023-02-14T06:51:14.385Z,-2.91
2023-02-14T06:54:38.396Z,-2.76
2023-02-14T06:58:00.676Z,-2.45
2023-02-14T07:01:23.408Z,-2.13
2023-02-14T07:04:46.487Z,-1.97
2023-02-14T07:08:09.279Z,-1.84
2023-02-14T07:11:33.516Z,-1.51
2023-02-14T07:14:55.967Z,-1.23
2023-02-14T07:18:19.068Z,-0.85
2023-02-14T07:21:41.691Z,-0.56
2023-02-14T07:25:04.442Z,-0.18
2023-02-14T07:28:28.020Z,0.22
2023-02-14T07:31:50.953Z,0.59
2023-02-14T07:35:16.343Z,0.85
2023-02-14T07:38:38.999Z,1.42
2023-02-14T07:42:01.269Z,2.07
2023-02-14T07:45:26.776Z,2.75
2023-02-14T07:48:51.765Z,3.37
2023-02-14T07:52:14.225Z,3.73
2023-02-14T07:55:36.773Z,4.41
2023-02-14T07:58:59.465Z,5.08
2023-02-14T08:02:23.404Z,5.36
2023-02-14T08:05:57.049Z,5.39
2023-02-14T08:09:24.851Z,5.72
2023-02-14T08:13:03.491Z,6.31
2023-02-14T08:16:25.723Z,6.89
2023-02-14T08:19:50.127Z,7.23
2023-02-14T08:23:12.661Z,7.72
2023-02-14T08:26:35.627Z,7.77
2023-02-14T08:29:58.162Z,8.51
2023-02-14T08:33:20.794Z,8.22
2023-02-14T08:36:44.597Z,8.72
2023-02-14T08:40:08.776Z,8.96
2023-02-14T08:43:33.285Z,9.66
2023-02-14T08:46:56.917Z,9.56
2023-02-14T08:50:19.711Z,10.27
2023-02-14T08:53:44.084Z,10.80
2023-02-14T08:57:06.829Z,11.05
2023-02-14T09:00:29.814Z,11.02
2023-02-14T09:03:52.536Z,11.19
2023-02-14T09:07:15.484Z,11.30
2023-02-14T09:10:39.391Z,10.90
2023-02-14T09:14:04.681Z,10.83
2023-02-14T09:17:27.510Z,11.74
2023-02-14T09:20:50.509Z,12.87
2023-02-14T09:24:12.929Z,12.25
2023-02-14T09:27:39.202Z,12.24
2023-02-14T09:31:08.923Z,12.61
2023-02-14T09:34:32.091Z,12.19
2023-02-14T09:37:54.597Z,12.69
2023-02-14T09:41:44.763Z,13.02
2023-02-14T09:45:11.776Z,13.04
2023-02-14T09:48:36.330Z,12.97
2023-02-14T09:51:58.481Z,13.13
2023-02-14T09:55:21.137Z,12.65
2023-02-14T09:58:46.014Z,12.91
2023-02-14T10:02:26.743Z,13.36
2023-02-14T10:05:51.947Z,14.05
2023-02-14T10:09:21.286Z,14.13
2023-02-14T10:12:46.581Z,13.93
2023-02-14T10:16:13.056Z,13.27
2023-02-14T10:19:39.616Z,12.19
2023-02-14T10:23:05.571Z,13.06
2023-02-14T10:26:31.453Z,13.37
2023-02-14T10:29:53.829Z,13.32
2023-02-14T10:33:17.788Z,13.22
2023-02-14T10:36:49.479Z,13.61
2023-02-14T10:40:30.915Z,13.93
2023-02-14T10:43:57.330Z,14.78
2023-02-14T10:47:35.897Z,15.12
2023-02-14T10:51:01.901Z,14.66
2023-02-14T10:54:27.395Z,14.39
2023-02-14T10:57:51.382Z,15.00
2023-02-14T11:01:14.925Z,15.58
2023-02-14T11:04:41.557Z,15.36
2023-02-14T11:08:14.608Z,15.44
2023-02-14T11:11:39.768Z,15.50
2023-02-14T11:15:15.618Z,16.81
2023-02-14T11:18:39.696Z,16.88
2023-02-14T11:22:02.709Z,16.60
2023-02-14T11:25:26.968Z,16.81
2023-02-14T11:28:56.915Z,16.42
2023-02-14T11:32:22.792Z,17.12
2023-02-14T11:35:45.927Z,16.70
2023-02-14T11:39:15.890Z,16.94
2023-02-14T11:42:43.258Z,16.74
2023-02-14T11:46:09.442Z,16.85
2023-02-14T11:49:33.077Z,17.16
2023-02-14T11:52:57.130Z,16.91
2023-02-14T11:56:21.418Z,16.76
2023-02-14T11:59:45.761Z,16.28
2023-02-14T12:03:16.775Z,16.74
2023-02-14T12:06:39.309Z,16.56
2023-02-14T12:10:21.869Z,15.87
2023-02-14T12:13:45.340Z,17.11
2023-02-14T12:17:11.043Z,16.45
2023-02-14T12:20:41.913Z,15.82
2023-02-14T12:24:06.582Z,16.83
2023-02-14T12:27:30.497Z,15.58
2023-02-14T12:30:53.003Z,17.18
2023-02-14T12:34:16.115Z,16.00
2023-02-14T12:37:56.071Z,16.48
2023-02-14T12:41:31.960Z,16.85
2023-02-14T12:44:57.849Z,16.52
2023-02-14T12:48:24.909Z,16.85
2023-02-14T12:51:50.505Z,16.10
2023-02-14T12:55:29.661Z,17.30
2023-02-14T12:58:58.063Z,15.66
2023-02-14T13:02:50.799Z,13.74
2023-02-14T13:06:16.440Z,14.52
2023-02-14T13:09:42.371Z,14.72
2023-02-14T13:13:08.905Z,15.89
2023-02-14T13:16:35.298Z,14.14
2023-02-14T13:20:01.169Z,13.48
2023-02-14T13:23:27.535Z,14.03
2023-02-14T13:26:53.804Z,15.25
2023-02-14T13:30:27.614Z,15.55
2023-02-14T13:33:52.530Z,15.68
2023-02-14T13:37:16.309Z,15.88
2023-02-14T13:40:38.785Z,15.69
2023-02-14T13:44:01.784Z,17.26
2023-02-14T13:47:25.774Z,16.24
2023-02-14T13:50:51.737Z,14.82
2023-02-14T13:54:29.861Z,14.69
2023-02-14T13:58:02.049Z,15.64
2023-02-14T14:01:32.806Z,15.03
2023-02-14T14:04:59.193Z,15.36
2023-02-14T14:08:40.781Z,15.73
2023-02-14T14:12:03.983Z,15.61
2023-02-14T14:15:26.730Z,15.55
2023-02-14T14:18:50.068Z,15.96
2023-02-14T14:22:15.419Z,15.85
2023-02-14T14:25:39.586Z,15.49
2023-02-14T14:29:02.174Z,15.76
2023-02-14T14:32:29.590Z,15.16
2023-02-14T14:35:54.055Z,15.14
2023-02-14T14:39:28.256Z,15.35
2023-02-14T14:42:50.436Z,16.10
2023-02-14T14:46:13.840Z,16.59
2023-02-14T14:49:36.335Z,15.67
2023-02-14T14:53:01.327Z,15.54
2023-02-14T14:56:26.397Z,14.64
2023-02-14T14:59:49.618Z,14.69
2023-02-14T15:03:17.444Z,15.55
2023-02-14T15:06:41.035Z,15.03
2023-02-14T15:10:03.666Z,14.66
2023-02-14T15:13:50.885Z,14.68
2023-02-14T15:17:15.734Z,13.72
2023-02-14T15:20:39.645Z,12.94
2023-02-14T15:24:03.011Z,13.14
2023-02-14T15:27:26.412Z,12.94
2023-02-14T15:30:50.323Z,12.15
2023-02-14T15:34:13.564Z,12.55
2023-02-14T15:37:36.129Z,11.88
2023-02-14T15:40:59.519Z,11.76
2023-02-14T15:44:22.615Z,11.21
2023-02-14T15:47:48.750Z,10.62
2023-02-14T15:51:17.730Z,10.54
2023-02-14T15:54:42.734Z,10.02
2023-02-14T15:58:06.062Z,9.11
2023-02-14T16:01:30.392Z,8.94
2023-02-14T16:04:55.324Z,8.97
2023-02-14T16:08:27.823Z,8.81
2023-02-14T16:11:50.739Z,8.37
2023-02-14T16:15:20.194Z,8.04
2023-02-14T16:18:45.733Z,7.63
2023-02-14T16:22:10.810Z,7.68
2023-02-14T16:25:34.216Z,7.38
2023-02-14T16:28:56.998Z,7.62
2023-02-14T16:32:21.573Z,7.18
2023-02-14T16:35:45.937Z,7.27
2023-02-14T16:39:15.465Z,7.09
2023-02-14T16:42:40.302Z,7.15
2023-02-14T16:46:04.486Z,7.05
2023-02-14T16:49:28.664Z,6.67
2023-02-14T16:52:52.895Z,6.73
2023-02-14T16:56:19.662Z,6.64
2023-02-14T16:59:52.965Z,6.50
2023-02-14T17:03:15.420Z,5.90
2023-02-14T17:06:39.675Z,6.07
2023-02-14T17:10:03.470Z,6.37
2023-02-14T17:13:29.125Z,6.23
2023-02-14T17:16:54.305Z,5.58
2023-02-14T17:20:22.092Z,5.20
2023-02-14T17:23:46.044Z,5.14
2023-02-14T17:27:09.964Z,5.03
2023-02-14T17:30:36.222Z,4.47
2023-02-14T17:34:01.530Z,4.94
2023-02-14T17:37:24.705Z,4.31
2023-02-14T17:40:50.146Z,3.97
2023-02-14T17:44:14.060Z,4.15
2023-02-14T17:47:39.141Z,3.79
2023-02-14T17:51:06.393Z,3.72
2023-02-14T17:54:31.559Z,3.68
2023-02-14T17:57:55.525Z,3.82
2023-02-14T18:01:24.215Z,3.40
2023-02-14T18:04:52.601Z,3.55
2023-02-14T18:08:17.197Z,3.54
2023-02-14T18:11:42.759Z,2.89
2023-02-14T18:15:07.103Z,2.94
2023-02-14T18:18:32.196Z,2.74
2023-02-14T18:21:57.974Z,2.65
2023-02-14T18:25:23.254Z,2.89
2023-02-14T18:28:47.092Z,2.15
2023-02-14T18:32:11.714Z,2.01
2023-02-14T18:35:38.049Z,2.28
2023-02-14T18:39:22.446Z,2.17
2023-02-14T18:42:47.075Z,2.28
2023-02-14T18:46:13.338Z,2.16
2023-02-14T18:49:39.376Z,1.82
2023-02-14T18:53:03.944Z,1.83
2023-02-14T18:56:36.249Z,1.83
2023-02-14T19:00:01.362Z,1.72
2023-02-14T19:03:25.579Z,1.80
2023-02-14T19:06:50.490Z,1.57
2023-02-14T19:10:15.825Z,1.54
2023-02-14T19:13:46.467Z,1.50
2023-02-14T19:17:12.079Z,1.58
2023-02-14T19:20:38.648Z,0.81
2023-02-14T19:24:09.570Z,0.78
2023-02-14T19:27:35.349Z,1.17
2023-02-14T19:31:04.824Z,1.19
2023-02-14T19:34:32.054Z,1.33
2023-02-14T19:37:57.591Z,0.91
2023-02-14T19:41:23.335Z,0.86
2023-02-14T19:44:47.881Z,0.94
2023-02-14T19:48:15.266Z,1.34
2023-02-14T19:51:39.827Z,1.19
2023-02-14T19:55:07.167Z,0.91
2023-02-14T19:58:34.480Z,1.17
2023-02-14T20:02:01.077Z,0.76
2023-02-14T20:05:29.256Z,0.55
2023-02-14T20:08:57.838Z,0.72
2023-02-14T20:12:22.085Z,0.54
2023-02-14T20:15:48.093Z,0.57
2023-02-14T20:19:14.734Z,0.44
2023-02-14T20:22:43.699Z,0.90
2023-02-14T20:26:18.325Z,0.60
2023-02-14T20:29:45.572Z,0.42
2023-02-14T20:33:16.354Z,0.23
2023-02-14T20:36:41.905Z,0.42
2023-02-14T20:40:11.566Z,0.01
2023-02-14T20:43:37.810Z,0.01
2023-02-14T20:47:03.345Z,0.56
2023-02-14T20:50:28.573Z,0.53
2023-02-14T20:53:59.878Z,0.70
2023-02-14T20:57:28.071Z,0.21
2023-02-14T21:00:55.503Z,-0.11
2023-02-14T21:04:20.986Z,0.16
2023-02-14T21:07:52.630Z,0.11
2023-02-14T21:11:18.118Z,-0.15
2023-02-14T21:14:46.829Z,0.00
2023-02-14T21:18:11.479Z,0.11
2023-02-14T21:21:36.859Z,-0.49
2023-02-14T21:25:02.931Z,-0.61
2023-02-14T21:28:28.264Z,-0.31
2023-02-14T21:31:54.253Z,-0.13
2023-02-14T21:35:24.382Z,-0.26
2023-02-14T21:38:49.142Z,-0.33
2023-02-14T21:42:17.794Z,-0.13
2023-02-14T21:45:57.523Z,-0.43
2023-02-14T21:49:40.213Z,-0.45
2023-02-14T21:53:07.933Z,-0.48
2023-02-14T21:56:31.944Z,-0.61
2023-02-14T21:59:55.716Z,-0.52
2023-02-14T22:03:19.371Z,-0.56
2023-02-14T22:06:47.530Z,-0.56
2023-02-14T22:10:12.987Z,-0.57
2023-02-14T22:13:36.316Z,-0.56
2023-02-14T22:16:59.052Z,-0.80
2023-02-14T22:20:21.738Z,-0.60
2023-02-14T22:23:46.088Z,-0.34
2023-02-14T22:27:09.018Z,-0.51
2023-02-14T22:30:31.481Z,-0.73
2023-02-14T22:33:54.075Z,-0.98
2023-02-14T22:37:16.556Z,-0.97
2023-02-14T22:40:43.279Z,-0.91
2023-02-14T22:44:05.946Z,-0.83
2023-02-14T22:47:28.608Z,-0.67
2023-02-14T22:50:51.131Z,-0.50
2023-02-14T22:54:14.955Z,-0.91
2023-02-14T22:57:38.901Z,-0.32
2023-02-14T23:01:01.694Z,-0.92
2023-02-14T23:04:24.879Z,-1.09
2023-02-14T23:07:49.684Z,-0.64
2023-02-14T23:11:14.668Z,-0.88
2023-02-14T23:14:56.203Z,-1.07
2023-02-14T23:18:36.497Z,-1.15
2023-02-14T23:21:59.234Z,-1.51
2023-02-14T23:25:21.539Z,-1.54
2023-02-14T23:28:44.021Z,-0.88
2023-02-14T23:32:08.008Z,-1.31
2023-02-14T23:35:31.150Z,-0.82
2023-02-14T23:38:53.655Z,-0.79
2023-02-14T23:42:16.195Z,-1.17
2023-02-14T23:45:41.194Z,-1.64
2023-02-14T23:49:06.596Z,-1.46
2023-02-14T23:52:29.240Z,-1.11
2023-02-14T23:55:51.837Z,-1.09
2023-02-14T23:59:14.663Z,-0.82
